Time;durP1;ratioP1;P1;durP2;ratioP2;P2;SDS_P1;SDS_P2;PMS_P1;PMS_P2;Temp;Humidity;BMP_temperature;BMP_pressure;BME280_temperature;BME280_humidity;BME280_pressure;Samples;Min_cycle;Max_cycle;Signal;HPM_P1;HPM_P2
2023/10/12 00:01:58;;;;;;;6.70;3.67;;;;;;;;;;5114881;28;20203;-35
2023/10/12 00:04:29;;;;;;;7.77;3.93;;;;;;;;;;5117375;28;20210;-38
2023/10/12 00:06:58;;;;;;;6.40;3.30;;;;;;;;;;5112613;28;20208;-37
2023/10/12 00:09:27;;;;;;;7.00;3.43;;;;;;;;;;5109837;28;20208;-40
2023/10/12 00:11:58;;;;;;;6.57;3.23;;;;;;;;;;5116561;28;20254;-38
2023/10/12 00:14:28;;;;;;;6.83;3.33;;;;;;;;;;5114573;28;20226;-42
2023/10/12 00:16:56;;;;;;;5.13;3.23;;;;;;;;;;5114293;28;20229;-39
2023/10/12 00:19:24;;;;;;;6.33;3.87;;;;;;;;;;5125540;27;20199;-38
2023/10/12 00:21:56;;;;;;;4.20;3.23;;;;;;;;;;5118821;27;20252;-41
2023/10/12 00:24:25;;;;;;;6.57;4.00;;;;;;;;;;5126381;27;20389;-38
2023/10/12 00:26:52;;;;;;;4.73;3.20;;;;;;;;;;5110758;27;20230;-36
2023/10/12 00:29:20;;;;;;;7.90;4.03;;;;;;;;;;5113143;27;20214;-37
2023/10/12 00:31:49;;;;;;;6.20;3.47;;;;;;;;;;5120030;27;20287;-37
2023/10/12 00:34:17;;;;;;;8.17;4.00;;;;;;;;;;5130387;27;20207;-38
2023/10/12 00:36:45;;;;;;;6.57;3.73;;;;;;;;;;5119848;27;20309;-36
2023/10/12 00:39:14;;;;;;;8.40;3.50;;;;;;;;;;5112063;27;20207;-38
2023/10/12 00:41:44;;;;;;;6.27;3.90;;;;;;;;;;5115629;27;20290;-37
2023/10/12 00:44:12;;;;;;;5.57;3.70;;;;;;;;;;5111845;27;20271;-42
2023/10/12 00:46:58;;;;;;;6.30;3.30;;;;;;;;;;5115241;27;20201;-33
2023/10/12 00:49:29;;;;;;;9.23;3.73;;;;;;;;;;5115190;27;20212;-37
2023/10/12 00:52:07;;;;;;;5.80;3.33;;;;;;;;;;5114319;27;20214;-39
2023/10/12 00:54:43;;;;;;;5.80;3.97;;;;;;;;;;5111133;27;20252;-37
2023/10/12 00:57:12;;;;;;;6.00;3.73;;;;;;;;;;5114501;27;20218;-37
2023/10/12 00:59:39;;;;;;;7.27;3.93;;;;;;;;;;5111108;27;20220;-36
2023/10/12 01:02:09;;;;;;;5.63;3.67;;;;;;;;;;5121684;27;20226;-37
2023/10/12 01:04:36;;;;;;;7.77;3.83;;;;;;;;;;5115402;27;20199;-39
2023/10/12 01:07:06;;;;;;;4.17;3.30;;;;;;;;;;5124702;27;20203;-38
2023/10/12 01:09:42;;;;;;;5.23;3.70;;;;;;;;;;5108788;27;20234;-41
2023/10/12 01:12:13;;;;;;;5.07;3.33;;;;;;;;;;5104823;27;20206;-38
2023/10/12 01:14:47;;;;;;;5.30;3.50;;;;;;;;;;5130773;27;20211;-38
2023/10/12 01:17:17;;;;;;;9.70;4.50;;;;;;;;;;5120535;27;20244;-41
2023/10/12 01:19:48;;;;;;;5.60;3.50;;;;;;;;;;5119478;27;20254;-42
2023/10/12 01:22:25;;;;;;;6.60;3.77;;;;;;;;;;5118082;27;20215;-38
2023/10/12 01:24:58;;;;;;;7.87;4.13;;;;;;;;;;5123101;27;20206;-41
2023/10/12 01:27:26;;;;;;;7.10;3.67;;;;;;;;;;5112313;27;20463;-34
2023/10/12 01:29:54;;;;;;;6.10;3.53;;;;;;;;;;5119083;27;20224;-39
2023/10/12 01:32:24;;;;;;;7.17;4.07;;;;;;;;;;5110983;27;20230;-35
2023/10/12 01:34:55;;;;;;;7.77;3.93;;;;;;;;;;5122647;27;20204;-33
2023/10/12 01:37:25;;;;;;;6.80;3.70;;;;;;;;;;5118640;27;20254;-34
2023/10/12 01:40:12;;;;;;;7.13;3.30;;;;;;;;;;5124759;27;20251;-37
2023/10/12 01:45:31;;;;;;;7.73;3.80;;;;;;;;;;5111249;27;20208;-39
2023/10/12 01:48:07;;;;;;;6.47;3.97;;;;;;;;;;5116766;27;20206;-34
2023/10/12 01:50:37;;;;;;;7.60;3.70;;;;;;;;;;5110213;27;20223;-37
2023/10/12 01:53:08;;;;;;;5.70;3.30;;;;;;;;;;5125189;27;20202;-35
2023/10/12 01:55:36;;;;;;;6.77;3.67;;;;;;;;;;5124150;27;20324;-33
2023/10/12 01:58:05;;;;;;;7.87;4.07;;;;;;;;;;5122257;27;20223;-39
2023/10/12 02:00:39;;;;;;;5.20;3.50;;;;;;;;;;5128757;27;20253;-35
2023/10/12 02:03:15;;;;;;;4.80;3.30;;;;;;;;;;5128525;27;20223;-38
2023/10/12 02:05:47;;;;;;;5.13;3.50;;;;;;;;;;5117579;27;20215;-37
2023/10/12 02:08:17;;;;;;;6.50;3.73;;;;;;;;;;5107987;27;20204;-31
2023/10/12 02:10:56;;;;;;;8.37;3.70;;;;;;;;;;5122499;27;20306;-40
2023/10/12 02:13:24;;;;;;;4.40;3.03;;;;;;;;;;5108550;27;20215;-35
2023/10/12 02:15:51;;;;;;;6.00;3.60;;;;;;;;;;5124245;27;20253;-37
2023/10/12 02:18:19;;;;;;;6.07;3.13;;;;;;;;;;5121109;27;20228;-38
2023/10/12 02:21:06;;;;;;;7.73;3.90;;;;;;;;;;5129732;27;20219;-33
2023/10/12 02:23:38;;;;;;;7.03;3.60;;;;;;;;;;5120128;27;20197;-35
2023/10/12 02:26:13;;;;;;;7.13;3.70;;;;;;;;;;5119401;27;20215;-41
2023/10/12 02:28:40;;;;;;;7.93;4.00;;;;;;;;;;5113526;27;20207;-35
2023/10/12 02:31:08;;;;;;;4.77;3.53;;;;;;;;;;5111732;28;20331;-38
2023/10/12 02:33:37;;;;;;;4.70;3.30;;;;;;;;;;5118802;27;20199;-37
2023/10/12 02:36:08;;;;;;;4.53;3.20;;;;;;;;;;5118516;27;20223;-40
2023/10/12 02:38:37;;;;;;;6.17;3.90;;;;;;;;;;5112526;27;20216;-39
2023/10/12 02:41:05;;;;;;;7.03;3.80;;;;;;;;;;5114742;27;20250;-36
2023/10/12 02:43:33;;;;;;;3.97;3.30;;;;;;;;;;5117882;27;20301;-34
2023/10/12 02:46:10;;;;;;;7.00;4.03;;;;;;;;;;5117676;27;20227;-39
2023/10/12 02:48:38;;;;;;;5.07;3.40;;;;;;;;;;5119805;27;20256;-39
2023/10/12 02:51:06;;;;;;;7.77;4.20;;;;;;;;;;5120956;27;20231;-34
2023/10/12 02:53:34;;;;;;;4.70;3.70;;;;;;;;;;5129247;27;20235;-32
2023/10/12 02:56:05;;;;;;;4.20;3.30;;;;;;;;;;5119025;27;20353;-36
2023/10/12 02:58:32;;;;;;;7.23;3.30;;;;;;;;;;5115632;27;20237;-36
2023/10/12 03:01:12;;;;;;;6.93;3.97;;;;;;;;;;5108997;27;20224;-36
2023/10/12 03:03:47;;;;;;;3.77;3.20;;;;;;;;;;5110288;27;20226;-34
2023/10/12 03:06:15;;;;;;;5.23;3.80;;;;;;;;;;5113351;27;20243;-35
2023/10/12 03:09:02;;;;;;;6.00;3.63;;;;;;;;;;5124613;27;20208;-35
2023/10/12 03:11:31;;;;;;;7.30;3.83;;;;;;;;;;5108973;28;20224;-37
2023/10/12 03:14:01;;;;;;;8.23;4.17;;;;;;;;;;5128149;27;20234;-37
2023/10/12 03:16:33;;;;;;;5.20;3.83;;;;;;;;;;5128890;27;20256;-39
2023/10/12 03:19:17;;;;;;;5.40;3.50;;;;;;;;;;5113023;28;20210;-38
2023/10/12 03:21:46;;;;;;;5.23;3.93;;;;;;;;;;5109795;28;20195;-39
2023/10/12 03:24:14;;;;;;;6.40;3.87;;;;;;;;;;5116458;28;20209;-35
2023/10/12 03:26:48;;;;;;;5.23;3.07;;;;;;;;;;5118094;27;20203;-36
2023/10/12 03:29:19;;;;;;;4.50;3.50;;;;;;;;;;5113141;27;20211;-37
2023/10/12 03:31:55;;;;;;;6.80;3.60;;;;;;;;;;5121462;28;20253;-40
2023/10/12 03:34:35;;;;;;;5.40;3.43;;;;;;;;;;5110811;28;20231;-39
2023/10/12 03:37:03;;;;;;;5.57;3.70;;;;;;;;;;5115850;28;20255;-35
2023/10/12 03:39:33;;;;;;;5.67;3.63;;;;;;;;;;5111628;28;20206;-35
2023/10/12 03:42:40;;;;;;;5.83;3.27;;;;;;;;;;5108926;28;20212;-37
2023/10/12 03:45:08;;;;;;;7.73;4.03;;;;;;;;;;5124425;28;20208;-39
2023/10/12 03:47:52;;;;;;;5.50;3.57;;;;;;;;;;5125863;28;20199;-35
2023/10/12 03:50:20;;;;;;;5.47;3.50;;;;;;;;;;5118201;28;20262;-31
2023/10/12 03:52:52;;;;;;;7.27;3.73;;;;;;;;;;5122044;28;20267;-35
2023/10/12 03:55:27;;;;;;;7.03;3.53;;;;;;;;;;5124382;27;20237;-35
2023/10/12 03:58:06;;;;;;;5.87;3.20;;;;;;;;;;5119190;27;20225;-37
2023/10/12 04:00:34;;;;;;;6.43;3.67;;;;;;;;;;5126655;27;20234;-38
2023/10/12 04:03:06;;;;;;;6.37;3.63;;;;;;;;;;5123422;27;20208;-38
2023/10/12 04:05:45;;;;;;;7.77;4.20;;;;;;;;;;5114616;27;20287;-35
2023/10/12 04:16:40;;;;;;;6.07;3.53;;;;;;;;;;5119373;27;20245;-37
2023/10/12 04:19:06;;;;;;;7.13;4.50;;;;;;;;;;5117775;27;20231;-36
2023/10/12 04:21:36;;;;;;;4.83;3.97;;;;;;;;;;5123530;27;20223;-38
2023/10/12 04:27:06;;;;;;;7.50;4.30;;;;;;;;;;5117646;27;20227;-33
2023/10/12 04:29:34;;;;;;;6.90;4.00;;;;;;;;;;5118592;27;20207;-35
2023/10/12 04:32:15;;;;;;;7.37;4.43;;;;;;;;;;5117697;27;20204;-35
2023/10/12 04:34:48;;;;;;;8.03;4.17;;;;;;;;;;5115234;27;20221;-42
2023/10/12 04:37:27;;;;;;;5.60;3.63;;;;;;;;;;5123142;27;20313;-37
2023/10/12 04:39:57;;;;;;;6.10;4.00;;;;;;;;;;5110753;27;20289;-39
2023/10/12 04:42:34;;;;;;;8.87;4.33;;;;;;;;;;5106288;27;20208;-41
2023/10/12 04:45:15;;;;;;;8.30;4.07;;;;;;;;;;5111275;27;20215;-37
2023/10/12 04:47:45;;;;;;;5.93;4.37;;;;;;;;;;5114225;27;20202;-39
2023/10/12 04:50:26;;;;;;;8.73;3.67;;;;;;;;;;5124058;27;20227;-34
2023/10/12 04:53:06;;;;;;;5.83;3.93;;;;;;;;;;5113212;27;20266;-35
2023/10/12 04:55:34;;;;;;;7.20;5.60;;;;;;;;;;5119803;27;20299;-39
2023/10/12 04:58:15;;;;;;;10.17;8.27;;;;;;;;;;5113745;27;20220;-40
2023/10/12 05:00:55;;;;;;;7.30;5.67;;;;;;;;;;5128723;27;20227;-38
2023/10/12 05:03:35;;;;;;;9.10;5.10;;;;;;;;;;5123552;27;20207;-33
2023/10/12 05:06:04;;;;;;;8.07;4.90;;;;;;;;;;5121547;27;20207;-38
2023/10/12 05:08:33;;;;;;;7.57;5.30;;;;;;;;;;5122708;27;20256;-37
2023/10/12 05:11:00;;;;;;;6.90;4.67;;;;;;;;;;5123555;27;20234;-36
2023/10/12 05:13:28;;;;;;;8.67;5.93;;;;;;;;;;5119143;27;20306;-37
2023/10/12 05:15:58;;;;;;;7.70;4.97;;;;;;;;;;5122244;27;20223;-39
2023/10/12 05:18:27;;;;;;;8.20;4.97;;;;;;;;;;5110705;28;20226;-36
2023/10/12 05:20:54;;;;;;;6.00;4.87;;;;;;;;;;5119184;27;20223;-36
2023/10/12 05:23:21;;;;;;;8.83;4.63;;;;;;;;;;5123408;27;20299;-37
2023/10/12 05:25:54;;;;;;;7.83;5.63;;;;;;;;;;5122260;27;20203;-38
2023/10/12 05:28:26;;;;;;;7.20;5.47;;;;;;;;;;5120163;27;20202;-40
2023/10/12 05:30:59;;;;;;;8.47;5.43;;;;;;;;;;5126493;27;20285;-35
2023/10/12 05:33:39;;;;;;;7.03;4.77;;;;;;;;;;5131803;27;20198;-37
2023/10/12 05:36:08;;;;;;;7.13;4.83;;;;;;;;;;5124944;27;20215;-36
2023/10/12 05:38:36;;;;;;;6.33;4.50;;;;;;;;;;5120059;27;20227;-36
2023/10/12 05:41:04;;;;;;;6.23;4.80;;;;;;;;;;5129013;27;20254;-39
2023/10/12 05:43:33;;;;;;;5.80;4.97;;;;;;;;;;5117136;27;20295;-35
2023/10/12 05:46:03;;;;;;;5.47;4.07;;;;;;;;;;5116447;27;20203;-35
2023/10/12 05:48:34;;;;;;;5.33;4.37;;;;;;;;;;5123228;27;20253;-38
2023/10/12 05:51:04;;;;;;;5.13;4.00;;;;;;;;;;5115852;27;20232;-35
2023/10/12 05:53:34;;;;;;;8.83;4.47;;;;;;;;;;5120106;27;20195;-33
2023/10/12 05:56:01;;;;;;;7.03;4.10;;;;;;;;;;5115993;27;20257;-37
2023/10/12 05:58:28;;;;;;;5.73;4.03;;;;;;;;;;5114497;27;20238;-38
2023/10/12 06:00:56;;;;;;;5.53;4.23;;;;;;;;;;5121831;27;20238;-35
2023/10/12 06:03:23;;;;;;;7.87;4.27;;;;;;;;;;5120389;27;20210;-36
2023/10/12 06:05:52;;;;;;;6.67;4.00;;;;;;;;;;5117620;27;20229;-34
2023/10/12 06:08:20;;;;;;;6.03;4.00;;;;;;;;;;5112470;28;20239;-41
2023/10/12 06:10:47;;;;;;;6.73;4.10;;;;;;;;;;5122090;27;20220;-33
2023/10/12 06:13:15;;;;;;;6.73;4.10;;;;;;;;;;5110458;27;20216;-42
2023/10/12 06:15:49;;;;;;;9.23;4.50;;;;;;;;;;5118655;27;20221;-38
2023/10/12 06:18:21;;;;;;;6.13;4.40;;;;;;;;;;5123509;27;20271;-36
2023/10/12 06:20:58;;;;;;;7.07;4.00;;;;;;;;;;5115173;27;20222;-38
2023/10/12 06:23:28;;;;;;;8.33;4.10;;;;;;;;;;5128119;27;20199;-38
2023/10/12 06:25:55;;;;;;;10.30;4.07;;;;;;;;;;5121239;27;20199;-39
2023/10/12 06:28:24;;;;;;;6.20;3.60;;;;;;;;;;5109104;27;20196;-34
2023/10/12 06:30:52;;;;;;;5.30;3.50;;;;;;;;;;5120545;27;20243;-34
2023/10/12 06:33:22;;;;;;;6.73;4.47;;;;;;;;;;5126619;27;20235;-42
2023/10/12 06:35:59;;;;;;;7.97;4.30;;;;;;;;;;5113733;27;20207;-39
2023/10/12 06:38:47;;;;;;;5.53;4.17;;;;;;;;;;5111948;28;20210;-38
2023/10/12 06:41:58;;;;;;;4.63;3.83;;;;;;;;;;5119859;27;20229;-34
2023/10/12 06:44:26;;;;;;;8.40;4.07;;;;;;;;;;5126830;27;20236;-36
2023/10/12 06:46:53;;;;;;;7.37;3.87;;;;;;;;;;5121389;27;20235;-40
2023/10/12 06:49:23;;;;;;;10.03;4.20;;;;;;;;;;5111731;28;20202;-36
2023/10/12 06:52:00;;;;;;;7.70;4.00;;;;;;;;;;5121099;27;20315;-39
2023/10/12 06:54:32;;;;;;;4.23;3.83;;;;;;;;;;5124116;27;20217;-38
2023/10/12 06:59:59;;;;;;;5.60;4.10;;;;;;;;;;5120146;27;20693;-39
2023/10/12 07:02:27;;;;;;;5.43;4.10;;;;;;;;;;5119107;27;20252;-39
2023/10/12 07:04:54;;;;;;;7.73;4.80;;;;;;;;;;5115087;27;20208;-36
2023/10/12 07:07:27;;;;;;;9.53;4.90;;;;;;;;;;5116753;27;20207;-37
2023/10/12 07:10:11;;;;;;;6.20;4.40;;;;;;;;;;5122804;27;20220;-41
2023/10/12 07:12:47;;;;;;;8.73;5.13;;;;;;;;;;5117035;27;20227;-37
2023/10/12 07:15:19;;;;;;;6.73;4.07;;;;;;;;;;5113212;27;20199;-39
2023/10/12 07:17:49;;;;;;;6.23;3.93;;;;;;;;;;5119676;28;20211;-40
2023/10/12 07:20:27;;;;;;;5.47;4.00;;;;;;;;;;5116870;28;20268;-37
2023/10/12 07:22:54;;;;;;;9.83;5.13;;;;;;;;;;5124781;28;20235;-38
2023/10/12 07:25:26;;;;;;;8.97;4.87;;;;;;;;;;5120175;28;20291;-37
2023/10/12 07:27:58;;;;;;;5.60;4.63;;;;;;;;;;5116353;27;20209;-35
2023/10/12 07:30:33;;;;;;;8.93;5.77;;;;;;;;;;5128832;27;20233;-37
2023/10/12 07:33:04;;;;;;;7.43;4.93;;;;;;;;;;5128023;27;20199;-34
2023/10/12 07:35:35;;;;;;;8.37;5.03;;;;;;;;;;5122388;27;20237;-35
2023/10/12 07:38:05;;;;;;;6.97;4.50;;;;;;;;;;5123830;27;20203;-36
2023/10/12 07:40:37;;;;;;;13.77;6.10;;;;;;;;;;5131721;27;20219;-37
2023/10/12 07:43:06;;;;;;;12.00;5.70;;;;;;;;;;5114711;27;20261;-40
2023/10/12 07:45:38;;;;;;;10.30;4.87;;;;;;;;;;5129728;27;20240;-38
2023/10/12 07:48:09;;;;;;;8.57;5.27;;;;;;;;;;5130979;27;20204;-36
2023/10/12 07:50:45;;;;;;;12.33;5.27;;;;;;;;;;5121658;27;20244;-37
2023/10/12 07:53:22;;;;;;;13.10;5.80;;;;;;;;;;5127673;27;20288;-40
2023/10/12 07:55:56;;;;;;;8.30;5.00;;;;;;;;;;5130865;27;20207;-39
2023/10/12 07:58:23;;;;;;;9.07;5.00;;;;;;;;;;5123149;27;20223;-36
2023/10/12 08:01:19;;;;;;;8.20;5.00;;;;;;;;;;5134218;27;20341;-37
2023/10/12 08:03:49;;;;;;;8.07;5.20;;;;;;;;;;5131301;27;20200;-36
2023/10/12 08:06:17;;;;;;;9.63;4.57;;;;;;;;;;5116620;27;20199;-39
2023/10/12 08:08:45;;;;;;;10.33;5.80;;;;;;;;;;5131473;27;20286;-39
2023/10/12 08:13:55;;;;;;;7.13;4.77;;;;;;;;;;5128113;27;20538;-38
2023/10/12 08:16:29;;;;;;;9.40;5.30;;;;;;;;;;5128498;27;20207;-35
2023/10/12 08:21:59;;;;;;;13.23;5.57;;;;;;;;;;5075508;28;20196;-38
2023/10/12 08:24:29;;;;;;;8.37;6.00;;;;;;;;;;5123019;27;20210;-34
2023/10/12 08:27:05;;;;;;;9.33;6.00;;;;;;;;;;5122156;27;20287;-36
2023/10/12 08:32:27;;;;;;;9.97;6.00;;;;;;;;;;5123357;27;20194;-37
2023/10/12 08:35:39;;;;;;;10.03;6.30;;;;;;;;;;5114462;27;20290;-42
2023/10/12 08:38:25;;;;;;;12.73;5.60;;;;;;;;;;5122224;27;20199;-36
2023/10/12 08:43:45;;;;;;;13.60;5.87;;;;;;;;;;5117392;27;20202;-39
2023/10/12 08:46:20;;;;;;;9.97;5.37;;;;;;;;;;5116429;27;20209;-38
2023/10/12 08:48:53;;;;;;;12.43;6.13;;;;;;;;;;5123599;27;20230;-39
2023/10/12 08:51:23;;;;;;;9.83;4.97;;;;;;;;;;5125441;27;20218;-34
2023/10/12 08:53:51;;;;;;;11.53;6.57;;;;;;;;;;5119799;27;20211;-38
2023/10/12 08:56:21;;;;;;;19.40;6.60;;;;;;;;;;5120996;27;20211;-38
2023/10/12 08:58:55;;;;;;;13.67;6.90;;;;;;;;;;5122522;27;20226;-37
2023/10/12 09:01:31;;;;;;;12.23;6.70;;;;;;;;;;5135059;27;20223;-35
2023/10/12 09:04:03;;;;;;;13.97;6.23;;;;;;;;;;5132553;27;20214;-34
2023/10/12 09:06:53;;;;;;;13.43;6.20;;;;;;;;;;5113528;27;20203;-35
2023/10/12 09:09:48;;;;;;;11.53;6.17;;;;;;;;;;5122079;27;20196;-37
2023/10/12 09:12:19;;;;;;;11.00;6.30;;;;;;;;;;5116940;27;20215;-38
2023/10/12 09:14:50;;;;;;;9.97;6.03;;;;;;;;;;5125281;27;20390;-35
2023/10/12 09:17:32;;;;;;;8.07;5.53;;;;;;;;;;5131439;27;20207;-35
2023/10/12 09:22:46;;;;;;;14.30;6.43;;;;;;;;;;5127983;27;20241;-40
2023/10/12 09:25:34;;;;;;;12.27;6.50;;;;;;;;;;5114167;28;20204;-37
2023/10/12 09:28:01;;;;;;;9.87;5.70;;;;;;;;;;5118032;27;20199;-35
2023/10/12 09:30:35;;;;;;;10.60;6.80;;;;;;;;;;5131675;27;20216;-34
2023/10/12 09:33:08;;;;;;;13.83;6.17;;;;;;;;;;5121054;27;20200;-37
2023/10/12 09:35:40;;;;;;;8.20;5.63;;;;;;;;;;5115933;27;20269;-36
2023/10/12 09:38:08;;;;;;;13.23;5.80;;;;;;;;;;5117924;27;20801;-39
2023/10/12 09:40:39;;;;;;;11.60;5.70;;;;;;;;;;5120044;27;20234;-36
2023/10/12 09:43:12;;;;;;;12.23;5.40;;;;;;;;;;5114990;27;20290;-34
2023/10/12 09:45:45;;;;;;;11.27;6.10;;;;;;;;;;5122170;27;20299;-38
2023/10/12 09:48:18;;;;;;;11.50;5.97;;;;;;;;;;5133201;27;20198;-37
2023/10/12 09:50:46;;;;;;;15.20;5.83;;;;;;;;;;5119086;27;20223;-39
2023/10/12 09:53:20;;;;;;;14.53;5.40;;;;;;;;;;5119002;27;20204;-37
2023/10/12 09:56:02;;;;;;;11.73;5.30;;;;;;;;;;5129748;27;20199;-39
2023/10/12 09:58:32;;;;;;;11.17;5.50;;;;;;;;;;5118400;27;20385;-37
2023/10/12 10:01:07;;;;;;;10.63;5.83;;;;;;;;;;5123049;27;20227;-40
2023/10/12 10:03:47;;;;;;;9.27;5.80;;;;;;;;;;5118772;27;20222;-37
2023/10/12 10:06:20;;;;;;;11.40;5.20;;;;;;;;;;5111519;27;20214;-36
2023/10/12 10:09:03;;;;;;;10.70;5.83;;;;;;;;;;5124816;27;20196;-39
2023/10/12 10:11:31;;;;;;;9.60;4.63;;;;;;;;;;5119531;27;20222;-39
2023/10/12 10:13:58;;;;;;;12.97;5.10;;;;;;;;;;5124948;27;20215;-34
2023/10/12 10:16:42;;;;;;;8.60;4.53;;;;;;;;;;5118313;27;20215;-41
2023/10/12 10:19:14;;;;;;;13.53;4.43;;;;;;;;;;5115306;27;20906;-34
2023/10/12 10:21:49;;;;;;;8.13;3.80;;;;;;;;;;5121298;27;20199;-35
2023/10/12 10:24:19;;;;;;;7.37;3.70;;;;;;;;;;5117139;27;20206;-36
2023/10/12 10:26:49;;;;;;;6.43;4.20;;;;;;;;;;5127997;27;20214;-36
2023/10/12 10:29:18;;;;;;;10.57;3.93;;;;;;;;;;5120547;27;20203;-33
2023/10/12 10:31:51;;;;;;;7.20;4.10;;;;;;;;;;5120309;27;20210;-39
2023/10/12 10:34:23;;;;;;;6.40;3.40;;;;;;;;;;5121207;27;20199;-36
2023/10/12 10:36:52;;;;;;;9.10;3.80;;;;;;;;;;5113125;27;20207;-36
2023/10/12 10:39:29;;;;;;;12.47;4.40;;;;;;;;;;5122805;27;20272;-37
2023/10/12 10:42:00;;;;;;;8.23;3.80;;;;;;;;;;5123943;27;20195;-38
2023/10/12 10:44:29;;;;;;;8.10;4.13;;;;;;;;;;5119928;27;20200;-35
2023/10/12 10:47:06;;;;;;;5.43;4.03;;;;;;;;;;5111927;27;20286;-39
2023/10/12 10:49:33;;;;;;;11.97;4.60;;;;;;;;;;5117268;27;20219;-34
2023/10/12 10:52:13;;;;;;;6.10;3.30;;;;;;;;;;5116003;27;20210;-35
2023/10/12 10:54:56;;;;;;;4.97;3.70;;;;;;;;;;5132929;27;20206;-37
2023/10/12 10:57:30;;;;;;;7.87;4.20;;;;;;;;;;5116736;27;20229;-34
2023/10/12 10:59:58;;;;;;;7.27;4.27;;;;;;;;;;5127147;27;20226;-38
2023/10/12 11:02:27;;;;;;;7.67;4.00;;;;;;;;;;5125106;27;20214;-37
2023/10/12 11:04:58;;;;;;;7.67;3.87;;;;;;;;;;5115308;27;20212;-36
2023/10/12 11:07:25;;;;;;;7.80;4.30;;;;;;;;;;5115330;27;20212;-39
2023/10/12 11:10:23;;;;;;;12.23;3.97;;;;;;;;;;5121244;28;20219;-40
2023/10/12 11:12:49;;;;;;;6.50;3.83;;;;;;;;;;5110791;27;20303;-39
2023/10/12 11:15:20;;;;;;;8.30;3.30;;;;;;;;;;5115136;27;20223;-40
2023/10/12 11:17:57;;;;;;;7.13;4.00;;;;;;;;;;5116202;27;20208;-35
2023/10/12 11:20:43;;;;;;;4.17;3.67;;;;;;;;;;5116739;28;20364;-38
2023/10/12 11:23:11;;;;;;;5.57;3.47;;;;;;;;;;5118436;28;20207;-35
2023/10/12 11:25:42;;;;;;;8.30;4.40;;;;;;;;;;5133474;27;20199;-36
2023/10/12 11:28:22;;;;;;;6.73;4.00;;;;;;;;;;5117285;27;20208;-39
2023/10/12 11:30:51;;;;;;;6.87;3.53;;;;;;;;;;5126579;28;20216;-41
2023/10/12 11:33:27;;;;;;;9.27;4.17;;;;;;;;;;5129363;28;20284;-35
2023/10/12 11:36:00;;;;;;;8.87;4.33;;;;;;;;;;5118951;28;20200;-35
2023/10/12 11:38:27;;;;;;;6.90;3.67;;;;;;;;;;5125838;28;20215;-36
2023/10/12 11:40:55;;;;;;;10.63;3.80;;;;;;;;;;5132216;28;20227;-34
2023/10/12 11:43:26;;;;;;;7.07;3.43;;;;;;;;;;5120755;28;20205;-37
2023/10/12 11:46:01;;;;;;;6.63;3.80;;;;;;;;;;5123155;28;20257;-40
2023/10/12 11:48:30;;;;;;;7.87;3.60;;;;;;;;;;5128019;28;20211;-36
2023/10/12 11:50:57;;;;;;;7.57;3.90;;;;;;;;;;5115611;28;20224;-39
2023/10/12 11:53:24;;;;;;;6.07;3.67;;;;;;;;;;5119816;28;20288;-37
2023/10/12 11:56:04;;;;;;;6.70;3.40;;;;;;;;;;5118858;27;20306;-40
2023/10/12 11:58:32;;;;;;;7.27;3.97;;;;;;;;;;5123813;27;20194;-36
2023/10/12 12:01:00;;;;;;;10.13;3.83;;;;;;;;;;5122643;28;20230;-42
2023/10/12 12:03:27;;;;;;;7.90;3.60;;;;;;;;;;5123441;28;20200;-38
2023/10/12 12:05:56;;;;;;;7.07;4.03;;;;;;;;;;5125938;28;20207;-39
2023/10/12 12:08:25;;;;;;;8.10;4.00;;;;;;;;;;5124132;28;20204;-39
2023/10/12 12:11:03;;;;;;;6.47;3.40;;;;;;;;;;5118369;28;20232;-40
2023/10/12 12:13:35;;;;;;;8.27;3.60;;;;;;;;;;5110912;28;20211;-39
2023/10/12 12:16:02;;;;;;;7.27;3.67;;;;;;;;;;5110161;28;20560;-36
2023/10/12 12:18:32;;;;;;;8.17;3.53;;;;;;;;;;5125925;27;20211;-36
2023/10/12 12:21:03;;;;;;;8.53;3.73;;;;;;;;;;5130514;27;20228;-35
2023/10/12 12:23:34;;;;;;;6.67;3.60;;;;;;;;;;5128930;27;20267;-36
2023/10/12 12:26:07;;;;;;;6.70;3.63;;;;;;;;;;5127134;27;20203;-39
2023/10/12 12:28:43;;;;;;;6.10;3.60;;;;;;;;;;5116134;27;20231;-36
2023/10/12 12:31:13;;;;;;;9.17;4.17;;;;;;;;;;5114694;28;20246;-37
2023/10/12 12:33:43;;;;;;;5.97;3.37;;;;;;;;;;5118106;27;20272;-37
2023/10/12 12:36:12;;;;;;;7.57;4.07;;;;;;;;;;5129261;27;20294;-40
2023/10/12 12:38:48;;;;;;;6.87;4.30;;;;;;;;;;5114929;27;20228;-40
2023/10/12 12:41:23;;;;;;;4.90;3.40;;;;;;;;;;5122452;27;20227;-39
2023/10/12 12:43:51;;;;;;;5.90;3.57;;;;;;;;;;5127936;27;20204;-37
2023/10/12 12:46:18;;;;;;;9.27;3.97;;;;;;;;;;5116104;27;20211;-36
2023/10/12 12:48:46;;;;;;;7.77;4.00;;;;;;;;;;5120882;27;20206;-38
2023/10/12 12:51:15;;;;;;;7.13;3.73;;;;;;;;;;5117697;27;20247;-38
2023/10/12 12:53:46;;;;;;;6.10;3.80;;;;;;;;;;5126453;27;20197;-37
2023/10/12 12:56:14;;;;;;;5.87;3.73;;;;;;;;;;5123625;27;20398;-38
2023/10/12 12:58:46;;;;;;;5.87;3.73;;;;;;;;;;5122876;27;20208;-36
2023/10/12 13:01:13;;;;;;;5.93;4.00;;;;;;;;;;5123500;27;20282;-35
2023/10/12 13:03:40;;;;;;;8.00;4.10;;;;;;;;;;5123422;27;20199;-38
2023/10/12 13:06:08;;;;;;;6.47;3.60;;;;;;;;;;5122542;27;20205;-33
2023/10/12 13:08:36;;;;;;;6.83;3.80;;;;;;;;;;5123250;27;20203;-37
2023/10/12 13:11:05;;;;;;;6.73;4.40;;;;;;;;;;5135030;27;20223;-37
2023/10/12 13:13:33;;;;;;;8.77;3.67;;;;;;;;;;5120274;27;20212;-35
2023/10/12 13:16:03;;;;;;;6.23;3.57;;;;;;;;;;5116602;28;20211;-35
2023/10/12 13:18:32;;;;;;;10.87;3.77;;;;;;;;;;5118994;27;20207;-35
2023/10/12 13:21:00;;;;;;;7.73;3.57;;;;;;;;;;5122796;27;20219;-38
2023/10/12 13:23:27;;;;;;;6.10;4.20;;;;;;;;;;5121291;27;20219;-31
2023/10/12 13:25:55;;;;;;;7.70;3.87;;;;;;;;;;5134030;27;20204;-36
2023/10/12 13:28:22;;;;;;;7.30;3.67;;;;;;;;;;5116737;27;20208;-41
2023/10/12 13:30:50;;;;;;;8.97;3.93;;;;;;;;;;5119411;27;20223;-38
2023/10/12 13:33:17;;;;;;;9.50;3.90;;;;;;;;;;5124709;27;20217;-38
2023/10/12 13:35:45;;;;;;;7.27;4.23;;;;;;;;;;5132796;27;20204;-38
2023/10/12 13:38:15;;;;;;;9.23;4.50;;;;;;;;;;5125312;27;20242;-38
2023/10/12 13:40:46;;;;;;;7.40;4.10;;;;;;;;;;5120546;27;20256;-39
2023/10/12 13:43:21;;;;;;;8.67;4.23;;;;;;;;;;5113491;27;20209;-36
2023/10/12 13:45:49;;;;;;;8.37;4.40;;;;;;;;;;5122270;27;20208;-39
2023/10/12 13:48:20;;;;;;;10.07;5.30;;;;;;;;;;5114406;27;20294;-41
2023/10/12 13:50:52;;;;;;;8.33;4.33;;;;;;;;;;5119695;27;20224;-37
2023/10/12 13:53:20;;;;;;;8.57;3.63;;;;;;;;;;5113241;28;20249;-39
2023/10/12 13:55:48;;;;;;;6.20;4.23;;;;;;;;;;5118675;27;20207;-37
2023/10/12 13:58:17;;;;;;;11.03;4.80;;;;;;;;;;5113137;27;20210;-38
2023/10/12 14:00:45;;;;;;;5.03;4.00;;;;;;;;;;5119450;27;20235;-40
2023/10/12 14:03:17;;;;;;;12.53;4.87;;;;;;;;;;5113677;27;20292;-33
2023/10/12 14:05:44;;;;;;;9.43;4.73;;;;;;;;;;5114636;27;20210;-35
2023/10/12 14:08:12;;;;;;;8.90;5.20;;;;;;;;;;5124424;27;20210;-43
2023/10/12 14:10:40;;;;;;;11.40;5.30;;;;;;;;;;5123639;27;20269;-34
2023/10/12 14:13:08;;;;;;;7.73;4.80;;;;;;;;;;5109201;27;20215;-34
2023/10/12 14:15:36;;;;;;;10.33;4.70;;;;;;;;;;5124219;27;20252;-37
2023/10/12 14:18:04;;;;;;;9.70;5.23;;;;;;;;;;5120855;27;20212;-37
2023/10/12 14:20:33;;;;;;;8.57;4.40;;;;;;;;;;5115050;27;20697;-40
2023/10/12 14:23:06;;;;;;;7.80;4.67;;;;;;;;;;5111593;28;20216;-40
2023/10/12 14:25:35;;;;;;;11.63;4.40;;;;;;;;;;5128793;27;20204;-37
2023/10/12 14:28:03;;;;;;;6.23;4.17;;;;;;;;;;5110732;27;20212;-35
2023/10/12 14:30:30;;;;;;;6.80;4.47;;;;;;;;;;5116425;27;20220;-34
2023/10/12 14:33:02;;;;;;;10.77;4.47;;;;;;;;;;5127106;27;20207;-39
2023/10/12 14:35:29;;;;;;;5.13;4.07;;;;;;;;;;5121423;27;20201;-33
2023/10/12 14:37:56;;;;;;;7.90;4.23;;;;;;;;;;5114636;27;20201;-39
2023/10/12 14:40:29;;;;;;;9.77;4.57;;;;;;;;;;5115451;27;20232;-36
2023/10/12 14:42:57;;;;;;;7.97;4.33;;;;;;;;;;5117300;27;20235;-34
2023/10/12 14:45:25;;;;;;;9.50;4.40;;;;;;;;;;5117352;27;20235;-39
2023/10/12 14:47:54;;;;;;;7.40;4.03;;;;;;;;;;5126193;27;20566;-39
2023/10/12 14:50:24;;;;;;;11.10;4.53;;;;;;;;;;5119325;27;20304;-38
2023/10/12 14:52:53;;;;;;;6.43;4.00;;;;;;;;;;5117667;27;20200;-38
2023/10/12 14:55:24;;;;;;;8.50;4.20;;;;;;;;;;5126723;27;20237;-35
2023/10/12 14:57:51;;;;;;;7.17;4.20;;;;;;;;;;5112039;27;20235;-34
2023/10/12 15:00:23;;;;;;;9.93;4.73;;;;;;;;;;5121605;27;20238;-40
2023/10/12 15:02:50;;;;;;;14.73;5.17;;;;;;;;;;5112981;28;20265;-41
2023/10/12 15:05:18;;;;;;;11.50;4.50;;;;;;;;;;5111708;27;20207;-41
2023/10/12 15:07:48;;;;;;;8.20;4.07;;;;;;;;;;5121756;27;20195;-42
2023/10/12 15:10:17;;;;;;;6.80;4.07;;;;;;;;;;5120720;27;20232;-36
2023/10/12 15:12:45;;;;;;;5.87;3.70;;;;;;;;;;5109994;27;20208;-40
2023/10/12 15:15:16;;;;;;;11.40;4.43;;;;;;;;;;5114355;27;20229;-39
2023/10/12 15:17:44;;;;;;;9.20;4.20;;;;;;;;;;5113629;27;20207;-40
2023/10/12 15:20:15;;;;;;;6.47;4.43;;;;;;;;;;5115489;27;20238;-36
2023/10/12 15:22:44;;;;;;;9.30;5.10;;;;;;;;;;5117335;28;20206;-39
2023/10/12 15:25:13;;;;;;;10.30;4.50;;;;;;;;;;5127197;28;20228;-40
2023/10/12 15:27:41;;;;;;;6.67;4.37;;;;;;;;;;5109630;27;20210;-36
2023/10/12 15:30:10;;;;;;;6.90;4.43;;;;;;;;;;5129614;28;20258;-36
2023/10/12 15:32:40;;;;;;;7.50;4.40;;;;;;;;;;5117811;27;20290;-35
2023/10/12 15:35:17;;;;;;;7.53;4.90;;;;;;;;;;5117841;28;20232;-40
2023/10/12 15:37:46;;;;;;;9.43;4.87;;;;;;;;;;5124195;28;20204;-36
2023/10/12 15:40:18;;;;;;;6.80;4.83;;;;;;;;;;5122698;28;20230;-37